Time;durP1;ratioP1;P1;durP2;ratioP2;P2;SDS_P1;SDS_P2;PMS_P1;PMS_P2;Temp;Humidity;BMP_temperature;BMP_pressure;BME280_temperature;BME280_humidity;BME280_pressure;Samples;Min_cycle;Max_cycle;Signal;HPM_P1;HPM_P2
2024/02/14 00:02:04;;;;;;;4.15;1.50;;;;;;;8.60;63.67;100502.22;10208438;28;20059;-64
2024/02/14 00:07:06;;;;;;;2.77;1.50;;;;;;;8.42;64.81;100494.53;10210124;28;20150;-64
2024/02/14 00:12:08;;;;;;;3.55;1.88;;;;;;;8.34;65.48;100486.22;10214673;28;20054;-64
2024/02/14 00:17:10;;;;;;;3.50;2.50;;;;;;;8.43;66.35;100498.88;10201216;28;20112;-64
2024/02/14 00:22:12;;;;;;;2.55;2.00;;;;;;;8.49;66.48;100494.97;10223062;28;20053;-64
2024/02/14 00:27:17;;;;;;;3.45;2.60;;;;;;;8.36;66.68;100473.72;10207097;28;20196;-63
2024/02/14 00:32:22;;;;;;;5.45;2.28;;;;;;;8.44;67.19;100492.66;10194310;28;20165;-64
2024/02/14 00:37:24;;;;;;;4.35;3.05;;;;;;;8.29;67.25;100467.13;10194962;28;20058;-65
2024/02/14 00:42:25;;;;;;;5.75;3.45;;;;;;;8.30;68.25;100482.06;10202785;28;20223;-65
2024/02/14 00:47:27;;;;;;;6.13;2.67;;;;;;;8.31;68.54;100481.13;10197686;28;20059;-64
2024/02/14 00:52:28;;;;;;;4.15;2.72;;;;;;;8.33;68.40;100484.53;10184232;28;20201;-64
2024/02/14 00:57:34;;;;;;;6.97;2.97;;;;;;;8.29;69.26;100462.66;10197841;28;20149;-62
2024/02/14 01:02:35;;;;;;;3.75;2.90;;;;;;;8.44;69.67;100470.59;10195085;28;20055;-63
2024/02/14 01:07:37;;;;;;;5.45;3.25;;;;;;;8.36;69.94;100463.13;10197330;28;20046;-64
2024/02/14 01:12:39;;;;;;;5.55;3.03;;;;;;;8.40;70.76;100463.75;10203417;28;20091;-63
2024/02/14 01:17:41;;;;;;;5.45;3.03;;;;;;;8.29;71.25;100441.44;10194450;28;20078;-63
2024/02/14 01:22:43;;;;;;;4.68;2.58;;;;;;;8.28;71.44;100444.22;10199996;28;20197;-63
2024/02/14 01:27:44;;;;;;;5.57;2.60;;;;;;;8.22;71.95;100434.84;10205701;28;20081;-64
2024/02/14 01:32:46;;;;;;;4.72;2.58;;;;;;;8.02;72.04;100412.34;10201395;28;20133;-63
2024/02/14 01:37:47;;;;;;;4.03;2.53;;;;;;;8.12;71.98;100434.66;10204206;28;20150;-63
2024/02/14 01:42:49;;;;;;;4.15;2.15;;;;;;;8.11;72.80;100437.41;10188627;28;20149;-63
2024/02/14 01:47:51;;;;;;;5.50;2.67;;;;;;;8.12;72.86;100424.03;10191314;28;20047;-63
2024/02/14 01:52:52;;;;;;;2.83;1.90;;;;;;;8.18;73.06;100411.31;10191914;28;20063;-65
2024/02/14 01:57:57;;;;;;;4.60;2.40;;;;;;;8.25;73.15;100417.91;10200916;28;20086;-62
2024/02/14 02:02:59;;;;;;;5.80;2.55;;;;;;;8.29;72.50;100409.63;10183799;28;20066;-64
2024/02/14 02:08:01;;;;;;;3.70;2.10;;;;;;;8.24;72.87;100397.63;10199398;28;20054;-63
2024/02/14 02:13:03;;;;;;;5.35;2.20;;;;;;;8.26;72.50;100409.00;10193972;28;20481;-64
2024/02/14 02:18:05;;;;;;;5.10;2.47;;;;;;;8.36;73.06;100403.91;10201904;28;20055;-63
2024/02/14 02:23:08;;;;;;;3.70;2.05;;;;;;;8.38;72.11;100397.53;10184529;28;20686;-63
2024/02/14 02:28:10;;;;;;;3.83;2.10;;;;;;;8.32;72.16;100390.84;10190362;28;20068;-65
2024/02/14 02:33:12;;;;;;;4.68;2.15;;;;;;;8.34;72.29;100388.09;10198864;28;21042;-62
2024/02/14 02:38:14;;;;;;;4.32;2.30;;;;;;;8.42;72.17;100399.03;10193416;28;20051;-64
2024/02/14 02:43:15;;;;;;;3.20;2.30;;;;;;;8.38;72.01;100389.56;10197978;28;20073;-64
2024/02/14 02:48:17;;;;;;;4.55;2.42;;;;;;;8.43;71.80;100395.41;10205595;28;20622;-64
2024/02/14 02:53:19;;;;;;;4.03;2.65;;;;;;;8.41;71.45;100389.38;10213784;28;20169;-63
2024/02/14 02:58:21;;;;;;;4.95;2.50;;;;;;;8.40;72.05;100390.31;10204107;28;20454;-64
2024/02/14 03:03:25;;;;;;;4.13;2.70;;;;;;;8.38;71.99;100405.50;10194064;28;20555;-63
2024/02/14 03:08:27;;;;;;;6.65;2.90;;;;;;;8.36;71.95;100410.06;10191045;28;20154;-64
2024/02/14 03:13:28;;;;;;;4.45;3.03;;;;;;;8.40;72.29;100394.78;10208584;28;20134;-64
2024/02/14 03:18:30;;;;;;;3.80;2.63;;;;;;;8.46;71.72;100403.19;10198014;28;20057;-63
2024/02/14 03:23:31;;;;;;;4.05;2.78;;;;;;;8.46;71.66;100395.22;10197861;28;22089;-64
2024/02/14 03:28:33;;;;;;;3.60;2.72;;;;;;;8.34;72.19;100401.34;10206357;28;20099;-64
2024/02/14 03:33:35;;;;;;;3.17;2.28;;;;;;;8.35;72.38;100400.41;10206593;28;20119;-62
2024/02/14 03:38:37;;;;;;;3.00;2.70;;;;;;;8.35;72.61;100403.06;10204305;28;20741;-63
2024/02/14 03:43:39;;;;;;;5.30;3.03;;;;;;;8.45;71.96;100409.47;10202953;28;20063;-65
2024/02/14 03:48:43;;;;;;;3.80;2.88;;;;;;;8.36;72.54;100411.84;10189417;28;20094;-63
2024/02/14 03:53:45;;;;;;;3.78;2.30;;;;;;;8.43;72.37;100418.44;10209530;28;20513;-63
2024/02/14 03:58:47;;;;;;;4.38;2.65;;;;;;;8.40;72.40;100411.53;10198100;28;20047;-63
2024/02/14 04:03:48;;;;;;;4.45;2.72;;;;;;;8.38;72.84;100413.44;10191815;28;20046;-62
2024/02/14 04:08:50;;;;;;;3.45;2.63;;;;;;;8.37;72.61;100410.91;10206180;28;20179;-65
2024/02/14 04:13:52;;;;;;;3.67;2.67;;;;;;;8.39;72.65;100409.84;10188682;28;20056;-63
2024/02/14 04:18:54;;;;;;;4.32;2.55;;;;;;;8.49;72.79;100410.91;10204317;28;20058;-64
2024/02/14 04:23:58;;;;;;;3.55;2.55;;;;;;;8.55;72.56;100419.44;10218858;28;20121;-62
2024/02/14 04:28:59;;;;;;;4.70;2.30;;;;;;;8.47;72.16;100409.34;10206485;28;20050;-64
2024/02/14 04:34:01;;;;;;;4.93;2.83;;;;;;;8.45;72.57;100406.81;10216742;28;20117;-64
2024/02/14 04:39:03;;;;;;;3.83;2.80;;;;;;;8.52;72.61;100423.13;10201367;28;20064;-62
2024/02/14 04:44:07;;;;;;;6.75;3.17;;;;;;;8.47;72.92;100418.16;10211064;28;20062;-63
2024/02/14 04:49:09;;;;;;;4.25;2.83;;;;;;;8.43;72.83;100413.97;10185424;28;20055;-63
2024/02/14 04:54:13;;;;;;;6.05;3.15;;;;;;;8.42;72.92;100400.81;10191764;28;20074;-63
2024/02/14 04:59:14;;;;;;;3.42;2.80;;;;;;;8.52;73.26;100404.56;10195831;28;20051;-66
2024/02/14 05:04:16;;;;;;;3.28;2.55;;;;;;;8.47;73.08;100401.41;10206561;28;20054;-63
2024/02/14 05:09:18;;;;;;;3.65;2.65;;;;;;;8.47;73.26;100410.19;10185658;28;20072;-63
2024/02/14 05:14:20;;;;;;;4.22;2.75;;;;;;;8.56;73.14;100413.19;10204019;28;20063;-63
2024/02/14 05:19:22;;;;;;;4.05;2.50;;;;;;;8.43;73.43;100389.25;10202980;28;20606;-63
2024/02/14 05:24:27;;;;;;;7.88;3.17;;;;;;;8.61;73.49;100416.34;10202863;28;20485;-65
2024/02/14 05:29:28;;;;;;;3.53;2.92;;;;;;;8.60;74.67;100412.00;10199841;28;20238;-64
2024/02/14 05:34:31;;;;;;;5.60;3.00;;;;;;;8.56;75.14;100376.88;10197926;28;20055;-65
2024/02/14 05:39:36;;;;;;;5.57;3.05;;;;;;;8.60;75.02;100412.00;10189247;28;20138;-63
2024/02/14 05:44:37;;;;;;;4.90;3.10;;;;;;;8.65;75.53;100420.50;10173644;28;20149;-64
2024/02/14 05:49:39;;;;;;;4.70;2.85;;;;;;;8.62;75.37;100421.53;10211383;28;20137;-64
2024/02/14 05:54:42;;;;;;;4.78;2.85;;;;;;;8.63;75.15;100422.38;10195010;28;20113;-64
2024/02/14 05:59:44;;;;;;;4.93;2.60;;;;;;;8.61;75.19;100422.50;10194483;28;20055;-65
2024/02/14 06:04:46;;;;;;;6.85;3.55;;;;;;;8.68;74.99;100428.25;10192861;28;20055;-63
2024/02/14 06:09:47;;;;;;;3.28;2.97;;;;;;;8.66;75.38;100422.16;10193443;28;20513;-64
2024/02/14 06:14:49;;;;;;;3.75;2.67;;;;;;;8.66;75.81;100423.03;10183834;28;20134;-65
2024/02/14 06:19:50;;;;;;;6.35;2.65;;;;;;;8.71;75.90;100436.00;10181616;28;20482;-63
2024/02/14 06:24:52;;;;;;;5.00;3.05;;;;;;;8.61;76.64;100432.28;10195497;28;20506;-61
2024/02/14 06:29:55;;;;;;;4.93;2.60;;;;;;;8.73;77.00;100449.16;10193450;28;20047;-63
2024/02/14 06:34:56;;;;;;;4.18;2.78;;;;;;;8.71;76.85;100446.59;10207498;28;20446;-64
2024/02/14 06:39:58;;;;;;;4.70;2.65;;;;;;;8.74;77.19;100462.31;10199146;28;20157;-65
2024/02/14 06:44:59;;;;;;;3.75;2.10;;;;;;;8.61;77.74;100446.38;10194773;28;20058;-64
2024/02/14 06:50:01;;;;;;;3.85;2.67;;;;;;;8.60;78.42;100459.75;10195293;28;20050;-64
2024/02/14 06:55:03;;;;;;;6.40;2.75;;;;;;;8.63;79.12;100481.63;10200641;28;20207;-65
2024/02/14 07:00:06;;;;;;;4.53;2.20;;;;;;;8.66;79.64;100481.41;10181974;28;20055;-65
2024/02/14 07:05:12;;;;;;;4.18;3.15;;;;;;;8.63;79.77;100480.75;10196273;28;20089;-63
2024/02/14 07:10:13;;;;;;;6.03;2.95;;;;;;;8.71;83.53;100494.38;10203069;28;20542;-63
2024/02/14 07:15:15;;;;;;;4.90;3.10;;;;;;;8.75;80.10;100495.00;10193575;28;20205;-65
2024/02/14 07:20:18;;;;;;;7.40;3.08;;;;;;;8.81;79.56;100494.56;10193083;28;20133;-64
2024/02/14 07:25:19;;;;;;;5.35;3.17;;;;;;;8.81;79.83;100498.09;10187030;28;20047;-65
2024/02/14 07:30:22;;;;;;;5.93;2.95;;;;;;;8.82;79.97;100497.13;10212199;28;20062;-62
2024/02/14 07:35:25;;;;;;;3.72;2.92;;;;;;;8.69;80.26;100459.09;10198536;28;20054;-63
2024/02/14 07:40:30;;;;;;;7.38;3.45;;;;;;;8.80;80.87;100485.78;10191388;28;20513;-62
2024/02/14 07:45:32;;;;;;;5.25;2.90;;;;;;;8.52;81.80;100462.94;10204295;28;20051;-60
2024/02/14 07:50:33;;;;;;;4.97;2.60;;;;;;;8.77;81.94;100507.22;10212187;28;20055;-63
2024/02/14 07:55:35;;;;;;;5.53;2.75;;;;;;;8.80;82.03;100504.34;10219860;28;20059;-62
2024/02/14 08:00:37;;;;;;;3.63;2.30;;;;;;;8.89;81.90;100499.34;10194379;28;20051;-60
2024/02/14 08:05:38;;;;;;;5.95;2.80;;;;;;;8.95;81.26;100501.59;10174170;28;20135;-63
2024/02/14 08:10:40;;;;;;;6.07;2.85;;;;;;;8.96;81.06;100503.28;10200490;28;20056;-63
2024/02/14 08:15:42;;;;;;;5.07;2.40;;;;;;;8.91;80.98;100514.22;10185776;28;20920;-61
2024/02/14 08:20:43;;;;;;;4.40;2.30;;;;;;;9.02;80.79;100497.53;10199807;28;20078;-63
2024/02/14 08:25:45;;;;;;;5.28;2.88;;;;;;;9.03;80.90;100500.09;10198505;28;20579;-63
2024/02/14 08:30:49;;;;;;;5.00;2.72;;;;;;;9.02;81.51;100500.19;10198517;28;20588;-61
2024/02/14 08:35:50;;;;;;;6.47;2.75;;;;;;;9.08;81.39;100506.88;10216460;28;20201;-61
2024/02/14 08:40:52;;;;;;;4.75;3.25;;;;;;;9.12;81.59;100503.91;10186522;28;20075;-59
2024/02/14 08:45:57;;;;;;;4.30;2.58;;;;;;;9.10;81.88;100489.91;10202858;28;20055;-63
2024/02/14 08:50:59;;;;;;;;;;;;;;;9.25;81.75;100508.34;10210958;28;20530;-65
2024/02/14 08:56:01;;;;;;;5.88;2.60;;;;;;;9.30;81.79;100506.22;10197985;28;19929;-62
2024/02/14 09:01:03;;;;;;;3.20;2.33;;;;;;;9.34;81.58;100513.03;10215346;28;20062;-61
2024/02/14 09:06:17;;;;;;;4.75;2.83;;;;;;;9.33;82.25;100528.09;10201151;28;20059;-64
2024/02/14 09:11:20;;;;;;;4.97;2.17;;;;;;;9.34;82.55;100527.16;10205472;28;20470;-62
2024/02/14 09:16:23;;;;;;;4.57;2.88;;;;;;;9.31;82.69;100537.16;10196901;28;20063;-63
2024/02/14 09:21:27;;;;;;;3.22;2.22;;;;;;;9.29;82.95;100536.38;10190318;28;20046;-62
2024/02/14 09:26:29;;;;;;;3.35;2.42;;;;;;;9.35;83.30;100535.97;10201979;28;20074;-61
2024/02/14 09:31:32;;;;;;;6.35;2.65;;;;;;;9.27;83.00;100501.97;10212272;28;20051;-62
2024/02/14 09:36:34;;;;;;;3.60;2.58;;;;;;;9.56;83.06;100536.22;10194687;28;20826;-62
2024/02/14 09:41:43;;;;;;;4.63;2.45;;;;;;;9.64;82.64;100522.41;10193764;28;20063;-62
2024/02/14 09:46:45;;;;;;;10.20;3.47;;;;;;;9.63;83.83;100523.38;10197158;28;20151;-61
2024/02/14 09:51:48;;;;;;;4.65;3.40;;;;;;;9.66;84.42;100537.28;10192241;28;20056;-62
2024/02/14 09:56:53;;;;;;;4.32;2.85;;;;;;;9.67;85.14;100536.31;10187833;28;20051;-63
2024/02/14 10:01:55;;;;;;;4.57;2.10;;;;;;;9.67;85.19;100544.28;10179185;28;20066;-62
2024/02/14 10:06:57;;;;;;;4.30;2.08;;;;;;;9.77;84.94;100541.81;10214311;28;20054;-64
2024/02/14 10:12:08;;;;;;;3.50;2.50;;;;;;;9.79;86.23;100533.72;10185154;28;20138;-64
2024/02/14 10:17:20;;;;;;;3.10;2.40;;;;;;;9.93;85.98;100546.03;10204406;28;20053;-64
2024/02/14 10:22:21;;;;;;;4.97;2.53;;;;;;;10.06;85.69;100546.84;10179415;28;20055;-64
2024/02/14 10:27:25;;;;;;;4.38;3.08;;;;;;;10.04;86.34;100548.72;10203578;28;20055;-65
2024/02/14 10:32:27;;;;;;;3.25;2.38;;;;;;;10.11;86.37;100563.28;10200551;28;20237;-65
2024/02/14 10:37:30;;;;;;;4.15;2.10;;;;;;;10.17;86.09;100552.19;10174690;28;20059;-64
2024/02/14 10:42:31;;;;;;;3.33;1.67;;;;;;;10.17;86.63;100570.81;10189792;28;20093;-64
2024/02/14 10:47:35;;;;;;;4.88;2.20;;;;;;;10.27;86.69;100579.81;10204205;28;20087;-64
2024/02/14 10:52:40;;;;;;;3.33;1.80;;;;;;;10.38;86.57;100580.88;10196504;28;20062;-63
2024/02/14 10:57:43;;;;;;;2.08;1.60;;;;;;;10.63;85.76;100576.34;10193052;28;20130;-62
2024/02/14 11:02:47;;;;;;;3.85;1.58;;;;;;;10.84;84.71;100563.22;10179627;28;20706;-63
2024/02/14 11:07:52;;;;;;;4.60;2.05;;;;;;;10.89;84.24;100567.22;10193936;28;20055;-63
2024/02/14 11:12:54;;;;;;;2.50;1.50;;;;;;;10.97;84.18;100574.63;10199050;28;20778;-64
2024/02/14 11:18:04;;;;;;;4.00;1.70;;;;;;;11.15;83.68;100569.69;10192276;28;20053;-62
2024/02/14 11:23:11;;;;;;;3.70;2.50;;;;;;;11.20;82.71;100567.53;10194734;28;21545;-63
2024/02/14 11:28:15;;;;;;;4.63;1.98;;;;;;;11.22;82.91;100568.25;10196896;28;20551;-62
2024/02/14 11:33:21;;;;;;;3.33;1.60;;;;;;;11.38;82.41;100556.38;10201743;28;20207;-66
2024/02/14 11:38:25;;;;;;;2.40;1.42;;;;;;;11.45;82.37;100553.13;10192534;28;20766;-64
2024/02/14 11:43:27;;;;;;;1.90;1.45;;;;;;;11.36;82.42;100537.00;10200192;28;20107;-64
2024/02/14 11:48:32;;;;;;;2.35;1.40;;;;;;;11.50;82.21;100531.44;10190049;28;20446;-63
2024/02/14 11:53:35;;;;;;;4.47;1.42;;;;;;;11.47;82.03;100529.84;10199519;28;20097;-63
2024/02/14 11:58:36;;;;;;;2.10;1.50;;;;;;;11.63;81.60;100542.81;10200267;28;20055;-60
2024/02/14 12:03:39;;;;;;;4.63;1.42;;;;;;;11.70;81.50;100540.47;10200942;28;20134;-62
2024/02/14 12:08:41;;;;;;;3.45;1.55;;;;;;;11.57;82.06;100529.94;10181328;28;20062;-62
2024/02/14 12:13:43;;;;;;;3.72;1.30;;;;;;;11.45;82.90;100541.59;10193640;28;20066;-63
2024/02/14 12:18:45;;;;;;;1.55;1.05;;;;;;;11.31;84.11;100540.88;10211049;28;20202;-65
2024/02/14 12:23:53;;;;;;;2.47;1.40;;;;;;;11.26;84.87;100556.38;10202521;28;20054;-62
2024/02/14 12:28:55;;;;;;;2.88;1.30;;;;;;;11.20;85.61;100548.88;10200899;28;20634;-63
2024/02/14 12:33:59;;;;;;;3.10;1.25;;;;;;;11.09;86.69;100546.19;10205954;28;20047;-65
2024/02/14 12:39:06;;;;;;;3.05;1.63;;;;;;;11.23;86.65;100548.63;10201625;28;20488;-64
2024/02/14 12:44:08;;;;;;;3.78;1.73;;;;;;;11.25;86.95;100546.69;10187626;28;20671;-63
2024/02/14 12:49:11;;;;;;;3.25;1.50;;;;;;;11.25;87.16;100551.19;10201321;28;20081;-62
2024/02/14 12:54:15;;;;;;;3.10;2.10;;;;;;;11.28;87.28;100541.09;10208551;28;20535;-62
2024/02/14 12:59:18;;;;;;;3.10;1.88;;;;;;;11.18;88.39;100548.13;10203500;28;20047;-64
2024/02/14 13:04:21;;;;;;;3.35;2.00;;;;;;;11.16;88.66;100542.09;10185058;28;20254;-63
2024/02/14 13:09:22;;;;;;;3.78;2.50;;;;;;;11.24;88.26;100539.66;10202902;28;20061;-66
2024/02/14 13:14:24;;;;;;;4.22;1.80;;;;;;;11.16;88.61;100510.09;10199091;28;20062;-64
2024/02/14 13:19:26;;;;;;;3.22;1.88;;;;;;;11.19;89.16;100520.53;10198862;28;20084;-65
2024/02/14 13:24:28;;;;;;;3.63;2.60;;;;;;;11.29;88.91;100526.00;10204295;28;20062;-64
2024/02/14 13:29:29;;;;;;;2.30;1.85;;;;;;;11.31;88.95;100530.22;10207016;28;20059;-64
2024/02/14 13:34:31;;;;;;;2.00;1.80;;;;;;;11.29;88.98;100510.84;10195967;28;20151;-62
2024/02/14 13:39:33;;;;;;;3.40;1.80;;;;;;;11.21;90.02;100515.91;10195085;28;20071;-64
2024/02/14 13:44:35;;;;;;;3.53;1.88;;;;;;;11.20;89.99;100508.03;10208870;28;20080;-64
2024/02/14 13:49:37;;;;;;;2.65;1.80;;;;;;;11.36;90.15;100508.53;10180851;28;20050;-64
2024/02/14 13:54:41;;;;;;;5.33;2.07;;;;;;;11.38;91.17;100513.72;10183664;28;20133;-62
2024/02/14 13:59:43;;;;;;;4.75;2.22;;;;;;;11.50;91.88;100518.09;10191620;28;20046;-65
2024/02/14 14:04:44;;;;;;;3.50;1.80;;;;;;;11.51;93.04;100517.09;10199413;28;20510;-62
2024/02/14 14:09:47;;;;;;;3.17;1.98;;;;;;;11.46;94.26;100516.63;10194892;28;20066;-64
2024/02/14 14:14:48;;;;;;;2.30;1.83;;;;;;;11.39;94.82;100510.94;10187773;28;20189;-65
2024/02/14 14:19:50;;;;;;;2.47;1.90;;;;;;;11.33;96.34;100498.09;10193817;28;20048;-65
2024/02/14 14:24:52;;;;;;;3.20;2.17;;;;;;;11.31;97.33;100508.88;10157364;28;20058;-64
2024/02/14 14:29:57;;;;;;;2.75;1.80;;;;;;;11.28;98.20;100517.13;10193212;28;20398;-65
2024/02/14 14:34:59;;;;;;;3.38;2.20;;;;;;;11.31;99.37;100514.22;10193676;28;20051;-64
2024/02/14 14:40:04;;;;;;;3.25;1.90;;;;;;;11.35;99.59;100519.31;10195326;28;20382;-65
2024/02/14 14:45:08;;;;;;;3.85;2.58;;;;;;;11.28;99.84;100509.13;10196360;28;20091;-64
2024/02/14 14:50:10;;;;;;;4.10;2.67;;;;;;;11.28;100.00;100519.78;10195156;28;20058;-61
2024/02/14 14:55:12;;;;;;;5.63;2.70;;;;;;;11.13;100.00;100475.72;10191733;28;20130;-63
2024/02/14 15:00:14;;;;;;;5.25;2.58;;;;;;;11.30;100.00;100514.34;10179434;28;20062;-64
2024/02/14 15:05:16;;;;;;;3.47;2.47;;;;;;;11.27;100.00;100510.13;10189730;28;20058;-64
2024/02/14 15:10:17;;;;;;;3.67;2.53;;;;;;;11.16;100.00;100486.13;10191684;28;20195;-63
2024/02/14 15:15:20;;;;;;;3.15;2.17;;;;;;;11.30;100.00;100517.88;10179150;28;20056;-63
2024/02/14 15:20:22;;;;;;;2.78;2.20;;;;;;;11.34;100.00;100507.81;10169270;28;20556;-64
2024/02/14 15:25:28;;;;;;;3.53;2.83;;;;;;;11.27;100.00;100518.13;10193653;28;20059;-62
2024/02/14 15:35:50;;;;;;;4.43;3.00;;;;;;;11.29;100.00;100521.50;10203394;28;20167;-62
2024/02/14 15:41:00;;;;;;;4.20;3.25;;;;;;;11.22;100.00;100514.94;10202893;28;20055;-64
2024/02/14 15:46:03;;;;;;;3.25;2.72;;;;;;;11.26;100.00;100512.88;10200703;28;20056;-62
2024/02/14 15:51:04;;;;;;;3.40;2.58;;;;;;;11.26;100.00;100510.22;10201362;28;20054;-64
2024/02/14 15:56:08;;;;;;;3.92;2.95;;;;;;;11.25;100.00;100509.38;10190703;28;20047;-63
2024/02/14 16:01:10;;;;;;;17.45;16.02;;;;;;;11.28;100.00;100509.13;10192725;28;20058;-64
2024/02/14 16:06:12;;;;;;;4.03;2.78;;;;;;;11.23;100.00;100499.81;10191210;28;20058;-64
2024/02/14 16:11:14;;;;;;;3.05;2.75;;;;;;;11.20;100.00;100495.59;10218152;28;20046;-62
2024/02/14 16:16:15;;;;;;;3.75;2.28;;;;;;;11.22;100.00;100488.31;10205850;28;20070;-63
2024/02/14 16:21:17;;;;;;;5.45;2.22;;;;;;;11.29;100.00;100499.34;10208474;28;20504;-64
2024/02/14 16:26:19;;;;;;;7.38;6.65;;;;;;;11.22;100.00;100492.81;10186045;28;20074;-64
2024/02/14 16:31:21;;;;;;;4.25;2.40;;;;;;;11.21;100.00;100501.75;10211451;28;20137;-62
2024/02/14 16:36:23;;;;;;;4.10;2.75;;;;;;;11.21;100.00;100491.94;10183020;28;20054;-61
2024/02/14 16:41:26;;;;;;;9.43;8.32;;;;;;;11.08;100.00;100478.75;10199527;28;20054;-64
2024/02/14 16:46:27;;;;;;;4.95;4.03;;;;;;;11.22;100.00;100503.47;10194334;28;20182;-64
2024/02/14 16:51:29;;;;;;;3.15;2.25;;;;;;;11.22;100.00;100511.44;10186184;28;20410;-63
2024/02/14 16:56:33;;;;;;;;;;;;;;;11.18;100.00;100510.81;10191171;28;20750;-64
2024/02/14 17:01:35;;;;;;;3.20;2.38;;;;;;;11.21;100.00;100507.91;10213109;28;19922;-65
2024/02/14 17:06:37;;;;;;;3.17;1.92;;;;;;;11.18;100.00;100512.66;10205471;28;20055;-63
2024/02/14 17:11:39;;;;;;;3.08;2.08;;;;;;;10.96;100.00;100477.91;10202320;28;20051;-64
2024/02/14 17:16:42;;;;;;;2.92;2.67;;;;;;;11.20;100.00;100524.91;10200499;28;20276;-65
2024/02/14 17:21:45;;;;;;;2.85;2.58;;;;;;;11.25;100.00;100514.72;10200175;28;20541;-64
2024/02/14 17:26:47;;;;;;;2.70;2.22;;;;;;;11.26;100.00;100519.06;10202821;28;20062;-65
2024/02/14 17:31:50;;;;;;;2.60;2.40;;;;;;;11.28;100.00;100524.28;10202254;28;20054;-63
2024/02/14 17:36:53;;;;;;;2.97;2.65;;;;;;;11.27;100.00;100528.78;10192700;28;20654;-63
2024/02/14 17:41:55;;;;;;;4.07;2.50;;;;;;;11.25;100.00;100525.38;10216888;28;20061;-64
2024/02/14 17:46:56;;;;;;;3.35;2.90;;;;;;;11.30;100.00;100528.53;10200259;28;20055;-61
2024/02/14 17:51:58;;;;;;;2.95;2.65;;;;;;;11.27;100.00;100507.47;10214674;28;20062;-63
2024/02/14 17:57:01;;;;;;;3.00;2.40;;;;;;;11.29;100.00;100532.16;10193039;28;20055;-64
2024/02/14 18:02:03;;;;;;;2.88;2.30;;;;;;;11.31;100.00;100534.69;10201127;28;20609;-64
2024/02/14 18:07:04;;;;;;;2.80;2.60;;;;;;;11.32;100.00;100529.25;10186710;28;20137;-63
2024/02/14 18:12:06;;;;;;;3.17;2.88;;;;;;;11.36;100.00;100531.66;10190948;28;20066;-63
2024/02/14 18:17:08;;;;;;;3.38;2.55;;;;;;;11.39;100.00;100531.41;10201845;28;20063;-63
2024/02/14 18:22:12;;;;;;;2.60;2.30;;;;;;;11.40;100.00;100536.63;10195782;28;20118;-64
2024/02/14 18:27:14;;;;;;;3.75;2.63;;;;;;;11.38;100.00;100535.03;10195609;28;20195;-61
2024/02/14 18:32:18;;;;;;;3.13;2.60;;;;;;;11.40;100.00;100527.78;10181913;28;20043;-61
2024/02/14 18:37:19;;;;;;;4.20;3.10;;;;;;;11.38;100.00;100535.03;10195565;28;20047;-61
2024/02/14 18:42:20;;;;;;;3.58;3.22;;;;;;;11.41;100.00;100540.13;10196782;28;20111;-63
2024/02/14 18:47:23;;;;;;;2.63;2.22;;;;;;;11.40;100.00;100536.63;10198320;28;20075;-62
2024/02/14 18:52:24;;;;;;;4.32;3.92;;;;;;;11.45;100.00;100536.25;10198893;28;20065;-63
2024/02/14 18:57:29;;;;;;;3.60;3.30;;;;;;;11.47;100.00;100523.69;10203392;28;20062;-63
2024/02/14 19:02:33;;;;;;;4.20;3.17;;;;;;;11.49;100.00;100529.72;10189559;28;20063;-64
2024/02/14 19:07:38;;;;;;;3.67;2.85;;;;;;;11.51;100.00;100535.75;10198403;28;20067;-62
2024/02/14 19:12:41;;;;;;;3.83;3.42;;;;;;;11.51;100.00;100541.09;10187376;28;20128;-63
2024/02/14 19:17:45;;;;;;;4.72;3.13;;;;;;;11.47;100.00;100523.69;10200909;28;20051;-64
2024/02/14 19:22:47;;;;;;;3.63;3.05;;;;;;;11.44;100.00;100514.09;10206465;28;20066;-63
2024/02/14 19:27:49;;;;;;;3.28;2.97;;;;;;;11.52;100.00;100528.63;10177742;28;20123;-63
2024/02/14 19:32:52;;;;;;;4.22;3.08;;;;;;;11.49;100.00;100511.91;10202884;28;20541;-62
2024/02/14 19:37:54;;;;;;;4.00;3.63;;;;;;;11.47;100.00;100497.84;10207348;28;20055;-63
2024/02/14 19:42:55;;;;;;;2.80;2.58;;;;;;;11.50;100.00;100521.59;10201764;28;20050;-61
2024/02/14 19:47:57;;;;;;;3.35;2.67;;;;;;;11.54;100.00;100516.84;10187237;28;20123;-63
2024/02/14 19:52:59;;;;;;;2.78;2.58;;;;;;;11.54;100.00;100519.53;10210148;28;20059;-64
2024/02/14 19:58:03;;;;;;;3.30;2.87;;;;;;;11.50;100.00;100518.94;10205968;28;20050;-62
2024/02/14 20:03:04;;;;;;;4.60;3.70;;;;;;;11.36;100.00;100486.34;10204989;28;20135;-63
2024/02/14 20:08:07;;;;;;;5.20;4.05;;;;;;;11.53;100.00;100528.50;10197547;28;20468;-64
2024/02/14 20:13:09;;;;;;;4.50;3.70;;;;;;;11.47;100.00;100523.69;10212878;28;20058;-63
2024/02/14 20:18:11;;;;;;;6.18;4.68;;;;;;;11.47;100.00;100526.34;10217104;28;20051;-63
2024/02/14 20:23:17;;;;;;;4.82;4.43;;;;;;;11.46;100.00;100528.13;10202429;28;20077;-64
2024/02/14 20:28:20;;;;;;;4.97;4.25;;;;;;;11.46;100.00;100527.31;10197989;28;20132;-63
2024/02/14 20:33:24;;;;;;;4.32;3.92;;;;;;;11.46;100.00;100538.81;10185715;28;20066;-67
2024/02/14 20:38:27;;;;;;;4.55;4.15;;;;;;;11.46;100.00;100527.31;10198752;28;20047;-64
2024/02/14 20:43:30;;;;;;;5.17;3.90;;;;;;;11.47;100.00;100529.00;10201898;28;21251;-64
2024/02/14 20:48:31;;;;;;;5.47;4.95;;;;;;;11.45;100.00;100520.25;10182420;28;20266;-67
2024/02/14 20:53:34;;;;;;;4.68;3.90;;;;;;;11.38;100.00;100527.91;10201216;28;20047;-62
2024/02/14 20:58:36;;;;;;;4.82;4.32;;;;;;;11.38;100.00;100535.03;10196930;28;20063;-64
2024/02/14 21:03:52;;;;;;;5.32;4.70;;;;;;;11.44;100.00;100535.44;10198180;28;20048;-62
2024/02/14 21:08:55;;;;;;;5.00;4.50;;;;;;;11.35;100.00;100524.63;10187230;28;20058;-64
2024/02/14 21:13:57;;;;;;;4.88;4.28;;;;;;;11.42;100.00;100541.84;10196757;28;20606;-64
2024/02/14 21:18:58;;;;;;;4.82;4.43;;;;;;;11.41;100.00;100542.78;10195106;28;20059;-65
2024/02/14 21:24:00;;;;;;;5.43;4.93;;;;;;;11.41;100.00;100542.78;10197254;28;20059;-65
2024/02/14 21:29:02;;;;;;;5.45;4.95;;;;;;;11.45;100.00;100546.91;10197874;28;20063;-64
2024/02/14 21:34:04;;;;;;;5.90;5.00;;;;;;;11.40;100.00;100543.78;10202365;28;20047;-63
2024/02/14 21:39:10;;;;;;;5.95;4.78;;;;;;;11.45;100.00;100547.78;10200223;28;20199;-63
2024/02/14 21:44:13;;;;;;;5.00;4.60;;;;;;;11.40;100.00;100527.78;10189773;28;20061;-63
2024/02/14 21:49:19;;;;;;;6.82;5.65;;;;;;;11.41;100.00;100530.34;10180595;28;20071;-63
2024/02/14 21:54:22;;;;;;;6.03;5.20;;;;;;;11.48;100.00;100546.69;10205277;28;20059;-64
2024/02/14 21:59:24;;;;;;;7.03;5.68;;;;;;;11.46;100.00;100545.97;10204327;28;20051;-63
2024/02/14 22:04:25;;;;;;;7.15;5.60;;;;;;;11.40;100.00;100541.13;10192215;28;20055;-63
2024/02/14 22:09:27;;;;;;;6.90;6.22;;;;;;;11.43;100.00;100546.22;10193997;28;20105;-64
2024/02/14 22:14:28;;;;;;;7.03;6.40;;;;;;;11.44;100.00;100539.88;10202936;28;20058;-62
2024/02/14 22:19:33;;;;;;;6.97;6.28;;;;;;;11.48;100.00;100541.34;10186236;28;20071;-61
2024/02/14 22:24:35;;;;;;;6.20;5.60;;;;;;;11.46;100.00;100551.28;10186822;28;20146;-61
2024/02/14 22:29:37;;;;;;;6.88;6.28;;;;;;;11.48;100.00;100544.00;10194658;28;20220;-64
2024/02/14 22:34:40;;;;;;;7.80;6.97;;;;;;;11.39;100.00;100536.75;10200047;28;20124;-63
2024/02/14 22:39:42;;;;;;;6.82;6.22;;;;;;;11.46;100.00;100540.63;10198426;28;20112;-62
2024/02/14 22:44:43;;;;;;;6.78;6.00;;;;;;;11.45;100.00;100541.59;10197317;28;20069;-64
2024/02/14 22:49:46;;;;;;;6.13;5.60;;;;;;;11.47;100.00;100539.66;10193807;28;20074;-62
2024/02/14 22:54:50;;;;;;;6.18;5.68;;;;;;;11.40;100.00;100541.13;10200559;28;20113;-63
2024/02/14 22:59:51;;;;;;;5.60;5.13;;;;;;;11.38;100.00;100527.91;10182122;28;20051;-63
2024/02/14 23:04:53;;;;;;;6.30;5.25;;;;;;;11.22;100.00;100495.47;10193980;28;20057;-64
2024/02/14 23:09:55;;;;;;;6.32;5.25;;;;;;;11.46;100.00;100529.97;10188202;28;20690;-62
2024/02/14 23:14:58;;;;;;;6.75;6.20;;;;;;;11.48;100.00;100522.69;10204531;28;20051;-64
2024/02/14 23:20:00;;;;;;;6.20;5.50;;;;;;;11.51;100.00;100522.44;10195087;28;20545;-63